logo
Search for airport 
image banner adimage banner adimage banner ad
image banner ad

1VT8 - Mortimer Brown Landing

Located in Castleton, United States

ICAO - 1VT8, IATA -

Data provided by Airmate  

General information

Coordinates: N43°39'58" W73°9'58"
Elevation is 900 feet MSL.
 
View others Airports in Vermont

Operational data

Special qualification required
Current time UTC:
Current local time:
METAR: KRUT 242056Z AUTO 33012G22KT 8SM -RA OVC008 17/16 A2964 RMK AO2 RAB1957 SLP030 P0000 60006 T01670156 51017 $
TAF: KRUT 241734Z 2418/2518 35004KT P6SM VCSH FEW024 BKN040 TEMPO 2418/2421 -SHRA FEW018 BKN028 FM242100 32009G17KT 6SM -SHRA BR OVC015 FM242300 32010G16KT P6SM VCSH BKN029 FM250000 VRB03KT P6SM BKN045 WS020/01040KT FM250500 13004KT P6SM SCT190
View NOTAMs / SUP AIP / TFR affecting this airport [VIEW]
Communications frequencies: [VIEW]

Runways:

RWY identifierQFULength (ft)Width (ft)SurfaceLDA (ft)
18165080GRASS
36165080GRASS

Airport contact information

Address: Castleton United States

Satellite view of 1VT8